Time;durP1;ratioP1;P1;durP2;ratioP2;P2;SDS_P1;SDS_P2;PMS_P1;PMS_P2;Temp;Humidity;BMP_temperature;BMP_pressure;BME280_temperature;BME280_humidity;BME280_pressure;Samples;Min_cycle;Max_cycle;Signal;HPM_P1;HPM_P2
2022/04/20 00:00:12;;;;;;;8.400001;6.2;;;;;;;1.8;51.94336;94856.05;;;;
2022/04/20 00:01:13;;;;;;;8.400001;6.2;;;;;;;1.8;51.94336;94856.05;;;;
2022/04/20 00:02:14;;;;;;;8.400001;6.2;;;;;;;1.8;51.94336;94856.05;;;;
2022/04/20 00:03:14;;;;;;;8.400001;6.2;;;;;;;1.8;51.94336;94856.05;;;;
2022/04/20 00:04:15;;;;;;;8.400001;6.2;;;;;;;1.8;51.94336;94856.05;;;;
2022/04/20 00:05:15;;;;;;;6.550001;5.900001;;;;;;;1.65;52.03027;94850.01;;;;
2022/04/20 00:06:15;;;;;;;6.550001;5.900001;;;;;;;1.65;52.03027;94850.01;;;;
2022/04/20 00:07:16;;;;;;;6.550001;5.900001;;;;;;;1.65;52.03027;94850.01;;;;
2022/04/20 00:08:17;;;;;;;6.550001;5.900001;;;;;;;1.65;52.03027;94850.01;;;;
2022/04/20 00:09:17;;;;;;;6.550001;5.900001;;;;;;;1.65;52.03027;94850.01;;;;
2022/04/20 00:10:18;;;;;;;6.550001;5.900001;;;;;;;1.65;52.03027;94850.01;;;;
2022/04/20 00:11:18;;;;;;;6.550001;5.900001;;;;;;;1.65;52.03027;94850.01;;;;
2022/04/20 00:12:19;;;;;;;6.550001;5.900001;;;;;;;1.65;52.03027;94850.01;;;;
2022/04/20 00:13:20;;;;;;;6.550001;5.900001;;;;;;;1.65;52.03027;94850.01;;;;
2022/04/20 00:14:20;;;;;;;6.550001;5.900001;;;;;;;1.65;52.03027;94850.01;;;;
2022/04/20 00:15:21;;;;;;;6.550001;5.900001;;;;;;;1.65;52.03027;94850.01;;;;
2022/04/20 00:16:22;;;;;;;6.550001;5.900001;;;;;;;1.65;52.03027;94850.01;;;;
2022/04/20 00:17:22;;;;;;;6.550001;5.900001;;;;;;;1.65;52.03027;94850.01;;;;
2022/04/20 00:18:23;;;;;;;6.550001;5.900001;;;;;;;1.65;52.03027;94850.01;;;;
2022/04/20 00:19:23;;;;;;;6.550001;5.900001;;;;;;;1.65;52.03027;94850.01;;;;
2022/04/20 00:20:23;;;;;;;6.550001;5.900001;;;;;;;1.65;52.03027;94850.01;;;;
2022/04/20 00:21:24;;;;;;;6.550001;5.900001;;;;;;;1.65;52.03027;94850.01;;;;
2022/04/20 00:22:25;;;;;;;6.550001;5.900001;;;;;;;1.65;52.03027;94850.01;;;;
2022/04/20 00:23:25;;;;;;;6.550001;5.900001;;;;;;;1.65;52.03027;94850.01;;;;
2022/04/20 00:24:26;;;;;;;6.550001;5.900001;;;;;;;1.65;52.03027;94850.01;;;;
2022/04/20 00:25:26;;;;;;;6.550001;5.900001;;;;;;;1.65;52.03027;94850.01;;;;
2022/04/20 00:26:27;;;;;;;7.9;6.099999;;;;;;;1.26;52.48926;94844.73;;;;
2022/04/20 00:27:27;;;;;;;7.9;6.099999;;;;;;;1.26;52.48926;94844.73;;;;
2022/04/20 00:28:32;;;;;;;7.9;6.099999;;;;;;;1.26;52.48926;94844.73;;;;
2022/04/20 00:29:32;;;;;;;7.9;6.099999;;;;;;;1.26;52.48926;94844.73;;;;
2022/04/20 00:30:33;;;;;;;7.9;6.099999;;;;;;;1.26;52.48926;94844.73;;;;
2022/04/20 00:31:33;;;;;;;7.9;6.099999;;;;;;;1.26;52.48926;94844.73;;;;
2022/04/20 00:32:34;;;;;;;7.9;6.099999;;;;;;;1.26;52.48926;94844.73;;;;
2022/04/20 00:33:34;;;;;;;7.9;6.099999;;;;;;;1.26;52.48926;94844.73;;;;
2022/04/20 00:34:35;;;;;;;7.9;6.099999;;;;;;;1.26;52.48926;94844.73;;;;
2022/04/20 00:35:35;;;;;;;7.9;6.099999;;;;;;;1.26;52.48926;94844.73;;;;
2022/04/20 00:36:36;;;;;;;7.9;6.099999;;;;;;;1.26;52.48926;94844.73;;;;
2022/04/20 00:37:36;;;;;;;7.599999;6.599999;;;;;;;1.08;52.74121;94834.12;;;;
2022/04/20 00:38:39;;;;;;;7.599999;6.599999;;;;;;;1.08;52.74121;94834.12;;;;
2022/04/20 00:39:40;;;;;;;7.599999;6.599999;;;;;;;1.08;52.74121;94834.12;;;;
2022/04/20 00:40:40;;;;;;;7.599999;6.599999;;;;;;;1.08;52.74121;94834.12;;;;
2022/04/20 00:41:41;;;;;;;7.599999;6.599999;;;;;;;1.08;52.74121;94834.12;;;;
2022/04/20 00:42:41;;;;;;;7.599999;6.599999;;;;;;;1.08;52.74121;94834.12;;;;
2022/04/20 00:43:42;;;;;;;7.599999;6.599999;;;;;;;1.08;52.74121;94834.12;;;;
2022/04/20 00:44:43;;;;;;;7.599999;6.599999;;;;;;;1.08;52.74121;94834.12;;;;
2022/04/20 00:45:43;;;;;;;7.599999;6.599999;;;;;;;1.08;52.74121;94834.12;;;;
2022/04/20 00:46:45;;;;;;;7.599999;6.599999;;;;;;;1.08;52.74121;94834.12;;;;
2022/04/20 00:47:47;;;;;;;9.849999;6.9;;;;;;;0.96;52.91406;94835.23;;;;
2022/04/20 00:48:48;;;;;;;9.849999;6.9;;;;;;;0.96;52.91406;94835.23;;;;
2022/04/20 00:49:51;;;;;;;9.849999;6.9;;;;;;;0.96;52.91406;94835.23;;;;
2022/04/20 00:50:52;;;;;;;9.849999;6.9;;;;;;;0.96;52.91406;94835.23;;;;
2022/04/20 00:51:52;;;;;;;9.849999;6.9;;;;;;;0.96;52.91406;94835.23;;;;
2022/04/20 00:52:57;;;;;;;9.849999;6.9;;;;;;;0.96;52.91406;94835.23;;;;
2022/04/20 00:53:57;;;;;;;9.849999;6.9;;;;;;;0.96;52.91406;94835.23;;;;
2022/04/20 00:54:58;;;;;;;9.849999;6.9;;;;;;;0.96;52.91406;94835.23;;;;
2022/04/20 00:55:59;;;;;;;9.849999;6.9;;;;;;;0.96;52.91406;94835.23;;;;
2022/04/20 00:57:00;;;;;;;9.849999;6.9;;;;;;;0.96;52.91406;94835.23;;;;
2022/04/20 00:58:00;;;;;;;9.35;7.15;;;;;;;0.84;53.12109;94817.72;;;;
2022/04/20 00:59:01;;;;;;;9.35;7.15;;;;;;;0.84;53.12109;94817.72;;;;
2022/04/20 01:00:01;;;;;;;9.35;7.15;;;;;;;0.84;53.12109;94817.72;;;;
2022/04/20 01:01:04;;;;;;;9.35;7.15;;;;;;;0.84;53.12109;94817.72;;;;
2022/04/20 01:02:04;;;;;;;9.35;7.15;;;;;;;0.84;53.12109;94817.72;;;;
2022/04/20 01:03:05;;;;;;;9.35;7.15;;;;;;;0.84;53.12109;94817.72;;;;
2022/04/20 01:04:06;;;;;;;9.35;7.15;;;;;;;0.84;53.12109;94817.72;;;;
2022/04/20 01:05:07;;;;;;;9.35;7.15;;;;;;;0.84;53.12109;94817.72;;;;
2022/04/20 01:06:08;;;;;;;9.35;7.15;;;;;;;0.84;53.12109;94817.72;;;;
2022/04/20 01:07:09;;;;;;;9.35;7.15;;;;;;;0.84;53.12109;94817.72;;;;
2022/04/20 01:08:10;;;;;;;9.35;7.15;;;;;;;0.84;53.12109;94817.72;;;;
2022/04/20 01:09:11;;;;;;;9.549999;6.95;;;;;;;0.73;53.30762;94809.74;;;;
2022/04/20 01:10:11;;;;;;;9.549999;6.95;;;;;;;0.73;53.30762;94809.74;;;;
2022/04/20 01:11:12;;;;;;;9.549999;6.95;;;;;;;0.73;53.30762;94809.74;;;;
2022/04/20 01:12:12;;;;;;;9.549999;6.95;;;;;;;0.73;53.30762;94809.74;;;;
2022/04/20 01:13:14;;;;;;;9.549999;6.95;;;;;;;0.73;53.30762;94809.74;;;;
2022/04/20 01:14:15;;;;;;;9.549999;6.95;;;;;;;0.73;53.30762;94809.74;;;;
2022/04/20 01:15:17;;;;;;;9.549999;6.95;;;;;;;0.73;53.30762;94809.74;;;;
2022/04/20 01:16:17;;;;;;;9.549999;6.95;;;;;;;0.73;53.30762;94809.74;;;;
2022/04/20 01:17:18;;;;;;;9.549999;6.95;;;;;;;0.73;53.30762;94809.74;;;;
2022/04/20 01:18:19;;;;;;;9.549999;6.95;;;;;;;0.73;53.30762;94809.74;;;;
2022/04/20 01:19:19;;;;;;;9.549999;6.95;;;;;;;0.73;53.30762;94809.74;;;;
2022/04/20 01:20:20;;;;;;;9.549999;6.95;;;;;;;0.73;53.30762;94809.74;;;;
2022/04/20 01:21:22;;;;;;;9.549999;6.95;;;;;;;0.73;53.30762;94809.74;;;;
2022/04/20 01:22:22;;;;;;;9.549999;6.95;;;;;;;0.73;53.30762;94809.74;;;;
2022/04/20 01:23:23;;;;;;;9.549999;6.95;;;;;;;0.73;53.30762;94809.74;;;;
2022/04/20 01:24:23;;;;;;;9.549999;6.95;;;;;;;0.73;53.30762;94809.74;;;;
2022/04/20 01:25:23;;;;;;;9.549999;6.95;;;;;;;0.73;53.30762;94809.74;;;;
2022/04/20 01:26:24;;;;;;;9.549999;6.95;;;;;;;0.73;53.30762;94809.74;;;;
2022/04/20 01:27:27;;;;;;;9.549999;6.95;;;;;;;0.73;53.30762;94809.74;;;;
2022/04/20 01:28:27;;;;;;;9.549999;6.95;;;;;;;0.73;53.30762;94809.74;;;;
2022/04/20 01:29:28;;;;;;;9.549999;6.95;;;;;;;0.73;53.30762;94809.74;;;;
2022/04/20 01:30:30;;;;;;;9.150002;6.8;;;;;;;0.8;53.65332;94813.7;;;;
2022/04/20 01:31:31;;;;;;;9.150002;6.8;;;;;;;0.8;53.65332;94813.7;;;;
2022/04/20 01:32:31;;;;;;;9.150002;6.8;;;;;;;0.8;53.65332;94813.7;;;;
2022/04/20 01:33:32;;;;;;;9.150002;6.8;;;;;;;0.8;53.65332;94813.7;;;;
2022/04/20 01:34:33;;;;;;;9.150002;6.8;;;;;;;0.8;53.65332;94813.7;;;;
2022/04/20 01:35:33;;;;;;;9.150002;6.8;;;;;;;0.8;53.65332;94813.7;;;;
2022/04/20 01:36:34;;;;;;;9.150002;6.8;;;;;;;0.8;53.65332;94813.7;;;;
2022/04/20 01:37:35;;;;;;;9.150002;6.8;;;;;;;0.8;53.65332;94813.7;;;;
2022/04/20 01:38:35;;;;;;;9.150002;6.8;;;;;;;0.8;53.65332;94813.7;;;;
2022/04/20 01:39:36;;;;;;;9.150002;6.8;;;;;;;0.8;53.65332;94813.7;;;;
2022/04/20 01:40:36;;;;;;;9.150002;6.8;;;;;;;0.8;53.65332;94813.7;;;;
2022/04/20 01:41:37;;;;;;;9.150002;6.8;;;;;;;0.8;53.65332;94813.7;;;;
2022/04/20 01:42:37;;;;;;;9.150002;6.8;;;;;;;0.8;53.65332;94813.7;;;;
2022/04/20 01:43:38;;;;;;;9.150002;6.8;;;;;;;0.8;53.65332;94813.7;;;;
2022/04/20 01:44:38;;;;;;;9.150002;6.8;;;;;;;0.8;53.65332;94813.7;;;;
2022/04/20 01:45:39;;;;;;;9.150002;6.8;;;;;;;0.8;53.65332;94813.7;;;;
2022/04/20 01:46:39;;;;;;;9.150002;6.8;;;;;;;0.8;53.65332;94813.7;;;;
2022/04/20 01:47:40;;;;;;;9.150002;6.8;;;;;;;0.8;53.65332;94813.7;;;;
2022/04/20 01:48:40;;;;;;;9.150002;6.8;;;;;;;0.8;53.65332;94813.7;;;;
2022/04/20 01:49:41;;;;;;;9.150002;6.8;;;;;;;0.8;53.65332;94813.7;;;;
2022/04/20 01:51:46;;;;;;;9.150002;6.8;;;;;;;0.8;53.65332;94813.7;;;;
2022/04/20 01:52:47;;;;;;;7.849999;6.700001;;;;;;;0.82;53.71875;94807.29;;;;
2022/04/20 01:53:48;;;;;;;7.849999;6.700001;;;;;;;0.82;53.71875;94807.29;;;;
2022/04/20 01:54:49;;;;;;;7.849999;6.700001;;;;;;;0.82;53.71875;94807.29;;;;
2022/04/20 01:55:49;;;;;;;7.849999;6.700001;;;;;;;0.82;53.71875;94807.29;;;;
2022/04/20 01:56:50;;;;;;;7.849999;6.700001;;;;;;;0.82;53.71875;94807.29;;;;
2022/04/20 01:57:53;;;;;;;7.849999;6.700001;;;;;;;0.82;53.71875;94807.29;;;;
2022/04/20 01:58:53;;;;;;;7.849999;6.700001;;;;;;;0.82;53.71875;94807.29;;;;
2022/04/20 01:59:53;;;;;;;7.849999;6.700001;;;;;;;0.82;53.71875;94807.29;;;;
2022/04/20 02:00:54;;;;;;;7.849999;6.700001;;;;;;;0.82;53.71875;94807.29;;;;
2022/04/20 02:03:00;;;;;;;7.849999;6.700001;;;;;;;0.82;53.71875;94807.29;;;;
2022/04/20 02:04:00;;;;;;;7.8;6.5;;;;;;;0.72;53.92773;94792.55;;;;
2022/04/20 02:05:02;;;;;;;7.8;6.5;;;;;;;0.72;53.92773;94792.55;;;;
2022/04/20 02:06:04;;;;;;;7.8;6.5;;;;;;;0.72;53.92773;94792.55;;;;
2022/04/20 02:07:10;;;;;;;7.8;6.5;;;;;;;0.72;53.92773;94792.55;;;;
2022/04/20 02:08:10;;;;;;;7.8;6.5;;;;;;;0.72;53.92773;94792.55;;;;
2022/04/20 02:09:11;;;;;;;7.8;6.5;;;;;;;0.72;53.92773;94792.55;;;;
2022/04/20 02:10:11;;;;;;;7.8;6.5;;;;;;;0.72;53.92773;94792.55;;;;
2022/04/20 02:11:11;;;;;;;7.8;6.5;;;;;;;0.72;53.92773;94792.55;;;;
2022/04/20 02:12:12;;;;;;;7.8;6.5;;;;;;;0.72;53.92773;94792.55;;;;
2022/04/20 02:13:12;;;;;;;7.899999;6.700001;;;;;;;0.65;54.01367;94796.98;;;;
2022/04/20 02:14:13;;;;;;;7.899999;6.700001;;;;;;;0.65;54.01367;94796.98;;;;
2022/04/20 02:15:13;;;;;;;7.899999;6.700001;;;;;;;0.65;54.01367;94796.98;;;;
2022/04/20 02:16:14;;;;;;;7.899999;6.700001;;;;;;;0.65;54.01367;94796.98;;;;
2022/04/20 02:17:14;;;;;;;7.899999;6.700001;;;;;;;0.65;54.01367;94796.98;;;;
2022/04/20 02:18:15;;;;;;;7.899999;6.700001;;;;;;;0.65;54.01367;94796.98;;;;
2022/04/20 02:19:15;;;;;;;7.899999;6.700001;;;;;;;0.65;54.01367;94796.98;;;;
2022/04/20 02:20:15;;;;;;;7.899999;6.700001;;;;;;;0.65;54.01367;94796.98;;;;
2022/04/20 02:21:16;;;;;;;7.899999;6.700001;;;;;;;0.65;54.01367;94796.98;;;;
2022/04/20 02:22:17;;;;;;;7.899999;6.700001;;;;;;;0.65;54.01367;94796.98;;;;
2022/04/20 02:23:17;;;;;;;7.899999;6.700001;;;;;;;0.65;54.01367;94796.98;;;;
2022/04/20 02:24:17;;;;;;;8.299999;6.75;;;;;;;0.6;54.21582;94792.82;;;;
2022/04/20 02:25:18;;;;;;;8.299999;6.75;;;;;;;0.6;54.21582;94792.82;;;;
2022/04/20 02:26:19;;;;;;;8.299999;6.75;;;;;;;0.6;54.21582;94792.82;;;;
2022/04/20 02:27:19;;;;;;;8.299999;6.75;;;;;;;0.6;54.21582;94792.82;;;;
2022/04/20 02:28:20;;;;;;;8.299999;6.75;;;;;;;0.6;54.21582;94792.82;;;;
2022/04/20 02:29:20;;;;;;;8.299999;6.75;;;;;;;0.6;54.21582;94792.82;;;;
2022/04/20 02:30:21;;;;;;;8.299999;6.75;;;;;;;0.6;54.21582;94792.82;;;;
2022/04/20 02:31:21;;;;;;;8.299999;6.75;;;;;;;0.6;54.21582;94792.82;;;;
2022/04/20 02:32:22;;;;;;;8.299999;6.75;;;;;;;0.6;54.21582;94792.82;;;;
2022/04/20 02:33:22;;;;;;;8.299999;6.75;;;;;;;0.6;54.21582;94792.82;;;;
2022/04/20 02:34:23;;;;;;;8.299999;6.75;;;;;;;0.6;54.21582;94792.82;;;;
2022/04/20 02:35:23;;;;;;;8.299999;6.75;;;;;;;0.6;54.21582;94792.82;;;;
2022/04/20 02:36:24;;;;;;;8.299999;6.75;;;;;;;0.6;54.21582;94792.82;;;;
2022/04/20 02:37:25;;;;;;;8.299999;6.75;;;;;;;0.6;54.21582;94792.82;;;;
2022/04/20 02:38:27;;;;;;;8.299999;6.75;;;;;;;0.6;54.21582;94792.82;;;;
2022/04/20 02:39:27;;;;;;;8.299999;6.75;;;;;;;0.6;54.21582;94792.82;;;;
2022/04/20 02:40:28;;;;;;;8.299999;6.75;;;;;;;0.6;54.21582;94792.82;;;;
2022/04/20 02:41:30;;;;;;;8.299999;6.75;;;;;;;0.6;54.21582;94792.82;;;;
2022/04/20 02:42:31;;;;;;;8.299999;6.75;;;;;;;0.6;54.21582;94792.82;;;;
2022/04/20 02:43:31;;;;;;;8.299999;6.75;;;;;;;0.6;54.21582;94792.82;;;;
2022/04/20 02:44:32;;;;;;;8.299999;6.75;;;;;;;0.6;54.21582;94792.82;;;;
2022/04/20 02:45:32;;;;;;;7.200001;6.1;;;;;;;0.44;54.66895;94793.87;;;;
2022/04/20 02:46:34;;;;;;;7.200001;6.1;;;;;;;0.44;54.66895;94793.87;;;;
2022/04/20 02:47:34;;;;;;;7.200001;6.1;;;;;;;0.44;54.66895;94793.87;;;;
2022/04/20 02:48:35;;;;;;;7.200001;6.1;;;;;;;0.44;54.66895;94793.87;;;;
2022/04/20 02:49:35;;;;;;;7.200001;6.1;;;;;;;0.44;54.66895;94793.87;;;;
2022/04/20 02:50:36;;;;;;;7.200001;6.1;;;;;;;0.44;54.66895;94793.87;;;;
2022/04/20 02:51:36;;;;;;;7.200001;6.1;;;;;;;0.44;54.66895;94793.87;;;;
2022/04/20 02:52:37;;;;;;;7.200001;6.1;;;;;;;0.44;54.66895;94793.87;;;;
2022/04/20 02:53:37;;;;;;;7.200001;6.1;;;;;;;0.44;54.66895;94793.87;;;;
2022/04/20 02:54:38;;;;;;;7.200001;6.1;;;;;;;0.44;54.66895;94793.87;;;;
2022/04/20 02:55:38;;;;;;;9.200001;7.05;;;;;;;0.46;54.91309;94791.44;;;;
2022/04/20 02:56:39;;;;;;;9.200001;7.05;;;;;;;0.46;54.91309;94791.44;;;;
2022/04/20 02:57:40;;;;;;;9.200001;7.05;;;;;;;0.46;54.91309;94791.44;;;;
2022/04/20 02:58:41;;;;;;;9.200001;7.05;;;;;;;0.46;54.91309;94791.44;;;;
2022/04/20 02:59:41;;;;;;;9.200001;7.05;;;;;;;0.46;54.91309;94791.44;;;;
2022/04/20 03:00:43;;;;;;;9.200001;7.05;;;;;;;0.46;54.91309;94791.44;;;;
2022/04/20 03:01:43;;;;;;;9.200001;7.05;;;;;;;0.46;54.91309;94791.44;;;;
2022/04/20 03:02:43;;;;;;;9.200001;7.05;;;;;;;0.46;54.91309;94791.44;;;;
2022/04/20 03:03:44;;;;;;;9.200001;7.05;;;;;;;0.46;54.91309;94791.44;;;;
2022/04/20 03:04:44;;;;;;;9.200001;7.05;;;;;;;0.46;54.91309;94791.44;;;;
2022/04/20 03:05:45;;;;;;;9.200001;7.05;;;;;;;0.46;54.91309;94791.44;;;;
2022/04/20 03:06:45;;;;;;;11.4;7.349999;;;;;;;0.5;55.04492;94800.2;;;;
2022/04/20 03:07:46;;;;;;;11.4;7.349999;;;;;;;0.5;55.04492;94800.2;;;;
2022/04/20 03:08:47;;;;;;;11.4;7.349999;;;;;;;0.5;55.04492;94800.2;;;;
2022/04/20 03:09:48;;;;;;;11.4;7.349999;;;;;;;0.5;55.04492;94800.2;;;;
2022/04/20 03:10:48;;;;;;;11.4;7.349999;;;;;;;0.5;55.04492;94800.2;;;;
2022/04/20 03:11:49;;;;;;;11.4;7.349999;;;;;;;0.5;55.04492;94800.2;;;;
2022/04/20 03:12:49;;;;;;;11.4;7.349999;;;;;;;0.5;55.04492;94800.2;;;;
2022/04/20 03:13:49;;;;;;;11.4;7.349999;;;;;;;0.5;55.04492;94800.2;;;;
2022/04/20 03:14:54;;;;;;;11.4;7.349999;;;;;;;0.5;55.04492;94800.2;;;;
2022/04/20 03:15:55;;;;;;;11.4;7.349999;;;;;;;0.5;55.04492;94800.2;;;;
2022/04/20 03:16:55;;;;;;;10.45;7.749999;;;;;;;0.58;55.33984;94795.67;;;;
2022/04/20 03:17:57;;;;;;;10.45;7.749999;;;;;;;0.58;55.33984;94795.67;;;;
2022/04/20 03:18:58;;;;;;;10.45;7.749999;;;;;;;0.58;55.33984;94795.67;;;;
2022/04/20 03:19:58;;;;;;;10.45;7.749999;;;;;;;0.58;55.33984;94795.67;;;;
2022/04/20 03:20:58;;;;;;;10.45;7.749999;;;;;;;0.58;55.33984;94795.67;;;;
2022/04/20 03:22:00;;;;;;;10.45;7.749999;;;;;;;0.58;55.33984;94795.67;;;;
2022/04/20 03:23:01;;;;;;;10.45;7.749999;;;;;;;0.58;55.33984;94795.67;;;;
2022/04/20 03:24:01;;;;;;;10.45;7.749999;;;;;;;0.58;55.33984;94795.67;;;;
2022/04/20 03:25:03;;;;;;;10.45;7.749999;;;;;;;0.58;55.33984;94795.67;;;;
2022/04/20 03:26:06;;;;;;;10.45;7.749999;;;;;;;0.58;55.33984;94795.67;;;;
2022/04/20 03:27:06;;;;;;;10.45;7.749999;;;;;;;0.58;55.33984;94795.67;;;;
2022/04/20 03:28:07;;;;;;;10.85;8.1;;;;;;;0.6;55.48926;94793.66;;;;
2022/04/20 03:29:08;;;;;;;10.85;8.1;;;;;;;0.6;55.48926;94793.66;;;;
2022/04/20 03:30:10;;;;;;;10.85;8.1;;;;;;;0.6;55.48926;94793.66;;;;
2022/04/20 03:31:10;;;;;;;10.85;8.1;;;;;;;0.6;55.48926;94793.66;;;;
2022/04/20 03:32:11;;;;;;;10.85;8.1;;;;;;;0.6;55.48926;94793.66;;;;
2022/04/20 03:33:12;;;;;;;10.85;8.1;;;;;;;0.6;55.48926;94793.66;;;;
2022/04/20 03:34:14;;;;;;;10.85;8.1;;;;;;;0.6;55.48926;94793.66;;;;
2022/04/20 03:35:14;;;;;;;10.85;8.1;;;;;;;0.6;55.48926;94793.66;;;;
2022/04/20 03:36:15;;;;;;;10.85;8.1;;;;;;;0.6;55.48926;94793.66;;;;
2022/04/20 03:37:16;;;;;;;10.85;8.1;;;;;;;0.6;55.48926;94793.66;;;;
2022/04/20 03:38:16;;;;;;;12.3;8.700001;;;;;;;0.62;55.98633;94794.7;;;;
2022/04/20 03:39:17;;;;;;;12.3;8.700001;;;;;;;0.62;55.98633;94794.7;;;;
2022/04/20 03:40:17;;;;;;;12.3;8.700001;;;;;;;0.62;55.98633;94794.7;;;;
2022/04/20 03:41:18;;;;;;;12.3;8.700001;;;;;;;0.62;55.98633;94794.7;;;;
2022/04/20 03:42:19;;;;;;;12.3;8.700001;;;;;;;0.62;55.98633;94794.7;;;;
2022/04/20 03:43:20;;;;;;;12.3;8.700001;;;;;;;0.62;55.98633;94794.7;;;;
2022/04/20 03:44:20;;;;;;;12.3;8.700001;;;;;;;0.62;55.98633;94794.7;;;;
2022/04/20 03:45:20;;;;;;;12.3;8.700001;;;;;;;0.62;55.98633;94794.7;;;;
2022/04/20 03:46:22;;;;;;;12.3;8.700001;;;;;;;0.62;55.98633;94794.7;;;;
2022/04/20 03:47:22;;;;;;;12.3;8.700001;;;;;;;0.62;55.98633;94794.7;;;;
2022/04/20 03:48:23;;;;;;;12.3;8.700001;;;;;;;0.62;55.98633;94794.7;;;;
2022/04/20 03:49:24;;;;;;;13.3;9.2;;;;;;;0.53;56.06836;94796.33;;;;
2022/04/20 03:50:24;;;;;;;13.3;9.2;;;;;;;0.53;56.06836;94796.33;;;;
2022/04/20 03:51:25;;;;;;;13.3;9.2;;;;;;;0.53;56.06836;94796.33;;;;
2022/04/20 03:52:25;;;;;;;13.3;9.2;;;;;;;0.53;56.06836;94796.33;;;;
2022/04/20 03:53:26;;;;;;;13.3;9.2;;;;;;;0.53;56.06836;94796.33;;;;
2022/04/20 03:54:27;;;;;;;13.3;9.2;;;;;;;0.53;56.06836;94796.33;;;;
2022/04/20 03:55:27;;;;;;;13.3;9.2;;;;;;;0.53;56.06836;94796.33;;;;
2022/04/20 03:57:03;;;;;;;13.3;9.2;;;;;;;0.53;56.06836;94796.33;;;;
2022/04/20 03:58:04;;;;;;;13.3;9.2;;;;;;;0.53;56.06836;94796.33;;;;
2022/04/20 03:59:05;;;;;;;13.3;9.2;;;;;;;0.53;56.06836;94796.33;;;;
2022/04/20 04:00:05;;;;;;;13.4;9.999999;;;;;;;0.42;56.33691;94801.2;;;;
2022/04/20 04:01:07;;;;;;;13.4;9.999999;;;;;;;0.42;56.33691;94801.2;;;;
2022/04/20 04:02:07;;;;;;;13.4;9.999999;;;;;;;0.42;56.33691;94801.2;;;;
2022/04/20 04:03:08;;;;;;;13.4;9.999999;;;;;;;0.42;56.33691;94801.2;;;;
2022/04/20 04:04:09;;;;;;;13.4;9.999999;;;;;;;0.42;56.33691;94801.2;;;;
2022/04/20 04:05:09;;;;;;;13.4;9.999999;;;;;;;0.42;56.33691;94801.2;;;;
2022/04/20 04:06:09;;;;;;;13.4;9.999999;;;;;;;0.42;56.33691;94801.2;;;;
2022/04/20 04:07:10;;;;;;;13.4;9.999999;;;;;;;0.42;56.33691;94801.2;;;;
2022/04/20 04:08:10;;;;;;;13.4;9.999999;;;;;;;0.42;56.33691;94801.2;;;;
2022/04/20 04:09:11;;;;;;;13.4;9.999999;;;;;;;0.42;56.33691;94801.2;;;;
2022/04/20 04:10:11;;;;;;;12.6;9.500001;;;;;;;0.4;56.71289;94797.91;;;;
2022/04/20 04:11:12;;;;;;;12.6;9.500001;;;;;;;0.4;56.71289;94797.91;;;;
2022/04/20 04:12:12;;;;;;;12.6;9.500001;;;;;;;0.4;56.71289;94797.91;;;;
2022/04/20 04:13:13;;;;;;;12.6;9.500001;;;;;;;0.4;56.71289;94797.91;;;;
2022/04/20 04:14:14;;;;;;;12.6;9.500001;;;;;;;0.4;56.71289;94797.91;;;;
2022/04/20 04:15:14;;;;;;;12.6;9.500001;;;;;;;0.4;56.71289;94797.91;;;;
2022/04/20 04:16:15;;;;;;;12.6;9.500001;;;;;;;0.4;56.71289;94797.91;;;;
2022/04/20 04:17:15;;;;;;;12.6;9.500001;;;;;;;0.4;56.71289;94797.91;;;;
2022/04/20 04:18:16;;;;;;;12.6;9.500001;;;;;;;0.4;56.71289;94797.91;;;;
2022/04/20 04:19:16;;;;;;;12.6;9.500001;;;;;;;0.4;56.71289;94797.91;;;;
2022/04/20 04:20:19;;;;;;;12.6;9.500001;;;;;;;0.4;56.71289;94797.91;;;;
2022/04/20 04:21:20;;;;;;;13;9.300001;;;;;;;0.32;56.74316;94792.3;;;;
2022/04/20 04:22:21;;;;;;;13;9.300001;;;;;;;0.32;56.74316;94792.3;;;;
2022/04/20 04:23:22;;;;;;;13;9.300001;;;;;;;0.32;56.74316;94792.3;;;;
2022/04/20 04:24:39;;;;;;;13;9.300001;;;;;;;0.32;56.74316;94792.3;;;;
2022/04/20 04:25:40;;;;;;;13;9.300001;;;;;;;0.32;56.74316;94792.3;;;;
2022/04/20 04:26:41;;;;;;;13;9.300001;;;;;;;0.32;56.74316;94792.3;;;;
2022/04/20 04:27:41;;;;;;;13;9.300001;;;;;;;0.32;56.74316;94792.3;;;;
2022/04/20 04:28:42;;;;;;;13;9.300001;;;;;;;0.32;56.74316;94792.3;;;;
2022/04/20 04:29:42;;;;;;;13;9.300001;;;;;;;0.32;56.74316;94792.3;;;;
2022/04/20 04:30:43;;;;;;;13;9.300001;;;;;;;0.32;56.74316;94792.3;;;;
2022/04/20 04:31:43;;;;;;;14.05;9.5;;;;;;;0.25;56.86035;94808.15;;;;
2022/04/20 04:32:44;;;;;;;14.05;9.5;;;;;;;0.25;56.86035;94808.15;;;;
2022/04/20 04:33:44;;;;;;;14.05;9.5;;;;;;;0.25;56.86035;94808.15;;;;
2022/04/20 04:34:45;;;;;;;14.05;9.5;;;;;;;0.25;56.86035;94808.15;;;;
2022/04/20 04:35:45;;;;;;;14.05;9.5;;;;;;;0.25;56.86035;94808.15;;;;
2022/04/20 04:36:46;;;;;;;14.05;9.5;;;;;;;0.25;56.86035;94808.15;;;;
2022/04/20 04:37:47;;;;;;;14.05;9.5;;;;;;;0.25;56.86035;94808.15;;;;
2022/04/20 04:38:48;;;;;;;14.05;9.5;;;;;;;0.25;56.86035;94808.15;;;;
2022/04/20 04:39:49;;;;;;;14.05;9.5;;;;;;;0.25;56.86035;94808.15;;;;
2022/04/20 04:40:49;;;;;;;14.05;9.5;;;;;;;0.25;56.86035;94808.15;;;;
2022/04/20 04:41:50;;;;;;;14.05;9.5;;;;;;;0.25;56.86035;94808.15;;;;
2022/04/20 04:42:50;;;;;;;16.6;10.85;;;;;;;0.26;57.04004;94809.38;;;;
2022/04/20 04:43:51;;;;;;;16.6;10.85;;;;;;;0.26;57.04004;94809.38;;;;
2022/04/20 04:44:51;;;;;;;16.6;10.85;;;;;;;0.26;57.04004;94809.38;;;;
2022/04/20 04:51:06;;;;;;;16.6;10.85;;;;;;;0.26;57.04004;94809.38;;;;
2022/04/20 04:52:11;;;;;;;16.6;10.85;;;;;;;0.26;57.04004;94809.38;;;;
2022/04/20 04:53:11;;;;;;;16.7;11.25;;;;;;;0.38;57.07813;94795.94;;;;
2022/04/20 04:54:12;;;;;;;16.7;11.25;;;;;;;0.38;57.07813;94795.94;;;;
2022/04/20 04:55:12;;;;;;;16.7;11.25;;;;;;;0.38;57.07813;94795.94;;;;
2022/04/20 04:56:13;;;;;;;16.7;11.25;;;;;;;0.38;57.07813;94795.94;;;;
2022/04/20 04:57:13;;;;;;;16.7;11.25;;;;;;;0.38;57.07813;94795.94;;;;
2022/04/20 04:58:14;;;;;;;16.7;11.25;;;;;;;0.38;57.07813;94795.94;;;;
2022/04/20 04:59:14;;;;;;;16.7;11.25;;;;;;;0.38;57.07813;94795.94;;;;
2022/04/20 05:00:15;;;;;;;16.7;11.25;;;;;;;0.38;57.07813;94795.94;;;;
2022/04/20 05:01:15;;;;;;;16.7;11.25;;;;;;;0.38;57.07813;94795.94;;;;
2022/04/20 05:02:16;;;;;;;16.7;11.25;;;;;;;0.38;57.07813;94795.94;;;;
2022/04/20 05:03:17;;;;;;;16.7;11.25;;;;;;;0.38;57.07813;94795.94;;;;
2022/04/20 05:04:19;;;;;;;19.65;12.65;;;;;;;0.59;57.69434;94807.95;;;;
2022/04/20 05:05:19;;;;;;;19.65;12.65;;;;;;;0.59;57.69434;94807.95;;;;
2022/04/20 05:06:20;;;;;;;19.65;12.65;;;;;;;0.59;57.69434;94807.95;;;;
2022/04/20 05:07:22;;;;;;;19.65;12.65;;;;;;;0.59;57.69434;94807.95;;;;
2022/04/20 05:08:22;;;;;;;19.65;12.65;;;;;;;0.59;57.69434;94807.95;;;;
2022/04/20 05:09:23;;;;;;;19.65;12.65;;;;;;;0.59;57.69434;94807.95;;;;
2022/04/20 05:10:23;;;;;;;19.65;12.65;;;;;;;0.59;57.69434;94807.95;;;;
2022/04/20 05:11:24;;;;;;;19.65;12.65;;;;;;;0.59;57.69434;94807.95;;;;
2022/04/20 05:12:24;;;;;;;19.65;12.65;;;;;;;0.59;57.69434;94807.95;;;;
2022/04/20 05:13:25;;;;;;;19.65;12.65;;;;;;;0.59;57.69434;94807.95;;;;
2022/04/20 05:14:25;;;;;;;20.4;12.85;;;;;;;0.85;57.47754;94814.45;;;;
2022/04/20 05:15:26;;;;;;;20.4;12.85;;;;;;;0.85;57.47754;94814.45;;;;
2022/04/20 05:16:26;;;;;;;20.4;12.85;;;;;;;0.85;57.47754;94814.45;;;;
2022/04/20 05:17:26;;;;;;;20.4;12.85;;;;;;;0.85;57.47754;94814.45;;;;
2022/04/20 05:18:27;;;;;;;20.4;12.85;;;;;;;0.85;57.47754;94814.45;;;;
2022/04/20 05:19:29;;;;;;;20.4;12.85;;;;;;;0.85;57.47754;94814.45;;;;
2022/04/20 05:20:30;;;;;;;20.4;12.85;;;;;;;0.85;57.47754;94814.45;;;;
2022/04/20 05:21:30;;;;;;;20.4;12.85;;;;;;;0.85;57.47754;94814.45;;;;
2022/04/20 05:22:31;;;;;;;20.4;12.85;;;;;;;0.85;57.47754;94814.45;;;;
2022/04/20 05:23:31;;;;;;;20.4;12.85;;;;;;;0.85;57.47754;94814.45;;;;
2022/04/20 05:24:35;;;;;;;20.4;12.85;;;;;;;0.85;57.47754;94814.45;;;;
2022/04/20 05:25:36;;;;;;;20.45;13.25;;;;;;;1.28;57.62012;94815.2;;;;
2022/04/20 05:26:36;;;;;;;20.45;13.25;;;;;;;1.28;57.62012;94815.2;;;;
2022/04/20 05:27:37;;;;;;;20.45;13.25;;;;;;;1.28;57.62012;94815.2;;;;
2022/04/20 05:28:38;;;;;;;20.45;13.25;;;;;;;1.28;57.62012;94815.2;;;;
2022/04/20 05:29:39;;;;;;;20.45;13.25;;;;;;;1.28;57.62012;94815.2;;;;
2022/04/20 05:30:39;;;;;;;20.45;13.25;;;;;;;1.28;57.62012;94815.2;;;;
2022/04/20 05:31:40;;;;;;;20.45;13.25;;;;;;;1.28;57.62012;94815.2;;;;
2022/04/20 05:32:40;;;;;;;20.45;13.25;;;;;;;1.28;57.62012;94815.2;;;;
2022/04/20 05:33:41;;;;;;;20.45;13.25;;;;;;;1.28;57.62012;94815.2;;;;
2022/04/20 05:34:42;;;;;;;20.45;13.25;;;;;;;1.28;57.62012;94815.2;;;;
2022/04/20 05:35:42;;;;;;;17.95;12.65;;;;;;;1.65;57.5332;94812.76;;;;
2022/04/20 05:41:57;;;;;;;17.95;12.65;;;;;;;1.65;57.5332;94812.76;;;;
2022/04/20 05:42:59;;;;;;;17.95;12.65;;;;;;;1.65;57.5332;94812.76;;;;
2022/04/20 05:43:59;;;;;;;17.95;12.65;;;;;;;1.65;57.5332;94812.76;;;;
2022/04/20 05:45:00;;;;;;;17.95;12.65;;;;;;;1.65;57.5332;94812.76;;;;
2022/04/20 05:46:00;;;;;;;17.95;12.65;;;;;;;1.65;57.5332;94812.76;;;;
2022/04/20 05:47:01;;;;;;;18.85;12.35;;;;;;;2.04;57.31055;94813.53;;;;
2022/04/20 05:48:03;;;;;;;18.85;12.35;;;;;;;2.04;57.31055;94813.53;;;;